Time;durP1;ratioP1;P1;durP2;ratioP2;P2;SDS_P1;SDS_P2;PMS_P1;PMS_P2;Temp;Humidity;BMP_temperature;BMP_pressure;BME280_temperature;BME280_humidity;BME280_pressure;Samples;Min_cycle;Max_cycle;Signal;HPM_P1;HPM_P2
2022/07/29 00:00:40;;;;;;;2.38;0.90;;;15.20;99.90;;;;;;4955947;29;20070;-73
2022/07/29 00:03:05;;;;;;;6.65;1.20;;;15.10;99.90;;;;;;4955179;29;20047;-74
2022/07/29 00:05:31;;;;;;;4.53;1.23;;;15.10;99.90;;;;;;4955822;28;20102;-73
2022/07/29 00:07:57;;;;;;;4.97;1.10;;;15.10;99.90;;;;;;4956572;28;20122;-74
2022/07/29 00:10:23;;;;;;;10.82;1.20;;;15.10;99.90;;;;;;4955742;28;20113;-76
2022/07/29 00:12:49;;;;;;;4.72;1.10;;;15.10;99.90;;;;;;4956382;28;20043;-75
2022/07/29 00:15:15;;;;;;;4.75;1.30;;;15.10;99.90;;;;;;4939357;29;20376;-74
2022/07/29 00:17:40;;;;;;;6.20;1.13;;;15.00;99.90;;;;;;4954355;29;20063;-74
2022/07/29 00:20:07;;;;;;;4.28;1.05;;;15.10;99.90;;;;;;4954611;29;20063;-72
2022/07/29 00:22:32;;;;;;;5.32;1.27;;;15.10;99.90;;;;;;4938114;29;20051;-72
2022/07/29 00:24:59;;;;;;;5.73;1.60;;;15.10;99.90;;;;;;4938703;29;20132;-72
2022/07/29 00:27:24;;;;;;;4.78;1.10;;;15.00;99.90;;;;;;4954296;29;20370;-78
2022/07/29 00:29:50;;;;;;;2.85;1.20;;;15.00;99.90;;;;;;4938328;29;20054;-74
2022/07/29 00:32:16;;;;;;;6.55;1.50;;;15.00;99.90;;;;;;4956111;29;20043;-73
2022/07/29 00:37:26;;;;;;;6.03;1.33;;;15.00;99.90;;;;;;4941623;29;20134;-75
2022/07/29 00:39:52;;;;;;;7.35;1.50;;;15.00;99.90;;;;;;4938996;29;20544;-74
2022/07/29 00:42:18;;;;;;;4.78;1.63;;;15.00;99.90;;;;;;4955489;29;20390;-75
2022/07/29 00:44:43;;;;;;;9.57;2.10;;;15.00;99.90;;;;;;4907357;29;20173;-73
2022/07/29 00:47:10;;;;;;;3.15;1.15;;;15.00;99.90;;;;;;4938493;29;20504;-73
2022/07/29 00:49:38;;;;;;;7.45;1.50;;;15.00;99.90;;;;;;4953831;29;20118;-73
2022/07/29 00:52:05;;;;;;;5.60;1.42;;;15.00;99.90;;;;;;4955192;28;20133;-74
2022/07/29 00:54:32;;;;;;;;;;;14.90;99.90;;;;;;4955898;28;20059;-75
2022/07/29 00:57:01;;;;;;;6.28;1.88;;;15.00;99.90;;;;;;4955520;29;20038;-75
2022/07/29 00:59:27;;;;;;;6.95;1.73;;;15.00;99.90;;;;;;4944400;29;20079;-76
2022/07/29 01:01:54;;;;;;;3.57;1.60;;;14.90;99.90;;;;;;4960675;29;20140;-75
2022/07/29 01:04:21;;;;;;;6.15;1.67;;;14.90;99.90;;;;;;4924369;29;20456;-74
2022/07/29 01:06:49;;;;;;;6.53;1.67;;;14.90;99.90;;;;;;4954316;29;20437;-73
2022/07/29 01:09:16;;;;;;;6.40;2.08;;;14.90;99.90;;;;;;4939079;29;20094;-75
2022/07/29 01:11:44;;;;;;;5.45;1.70;;;14.90;99.90;;;;;;4953498;29;20086;-74
2022/07/29 01:14:10;;;;;;;;;;;14.90;99.90;;;;;;4938556;29;20051;-74
2022/07/29 01:16:45;;;;;;;6.28;1.63;;;14.90;99.90;;;;;;4953640;29;19923;-74
2022/07/29 01:19:37;;;;;;;5.18;2.00;;;14.90;99.90;;;;;;4955226;29;20061;-74
2022/07/29 01:22:27;;;;;;;7.45;2.30;;;14.80;99.90;;;;;;4955333;29;20055;-74
2022/07/29 01:25:31;;;;;;;4.18;1.60;;;14.90;99.90;;;;;;4938845;29;20051;-75
2022/07/29 01:28:00;;;;;;;7.53;1.80;;;14.90;99.90;;;;;;4953772;29;20102;-75
2022/07/29 01:30:29;;;;;;;5.82;1.77;;;14.90;99.90;;;;;;4954375;29;20055;-76
2022/07/29 01:33:00;;;;;;;5.03;1.67;;;14.80;99.90;;;;;;4953630;29;20043;-73
2022/07/29 01:35:32;;;;;;;5.78;2.05;;;14.80;99.90;;;;;;4938261;29;20114;-75
2022/07/29 01:38:12;;;;;;;8.38;3.53;;;14.90;99.90;;;;;;4957270;29;20043;-74
2022/07/29 01:40:51;;;;;;;5.03;1.85;;;14.90;99.90;;;;;;4957502;29;20094;-74
2022/07/29 01:43:23;;;;;;;6.20;1.85;;;14.80;99.90;;;;;;4958712;29;20079;-77
2022/07/29 01:46:05;;;;;;;6.93;2.08;;;14.80;99.90;;;;;;4957383;29;20418;-74
2022/07/29 01:48:54;;;;;;;5.22;1.52;;;14.80;99.90;;;;;;4926064;29;20093;-76
2022/07/29 01:51:27;;;;;;;5.60;1.70;;;14.80;99.90;;;;;;4956850;29;20067;-76
2022/07/29 01:54:14;;;;;;;4.75;1.70;;;14.80;99.90;;;;;;4941649;29;20498;-73
2022/07/29 01:56:42;;;;;;;7.25;2.05;;;14.80;99.90;;;;;;4959931;28;20055;-74
2022/07/29 01:59:10;;;;;;;10.05;1.77;;;14.70;99.90;;;;;;4958626;28;20063;-74
2022/07/29 02:01:37;;;;;;;4.10;1.50;;;14.70;99.90;;;;;;4957122;29;20055;-73
2022/07/29 02:04:05;;;;;;;7.10;1.77;;;14.70;99.90;;;;;;4958481;28;20047;-73
2022/07/29 02:06:36;;;;;;;5.20;1.88;;;14.70;99.90;;;;;;4957864;28;20051;-73
2022/07/29 02:09:03;;;;;;;5.35;1.73;;;14.60;99.90;;;;;;4942066;29;20325;-73
2022/07/29 02:11:31;;;;;;;;;;;14.60;99.90;;;;;;4941400;29;20467;-74
2022/07/29 02:13:58;;;;;;;6.57;1.98;;;14.60;99.90;;;;;;4957963;29;20009;-74
2022/07/29 02:16:24;;;;;;;;;;;14.50;99.90;;;;;;4958245;28;20066;-74
2022/07/29 02:18:53;;;;;;;6.55;2.00;;;14.50;99.90;;;;;;4958067;29;19930;-74
2022/07/29 02:21:24;;;;;;;3.67;1.75;;;14.50;99.90;;;;;;4956395;29;20496;-75
2022/07/29 02:23:52;;;;;;;4.80;1.90;;;14.50;99.90;;;;;;4958430;29;20502;-74
2022/07/29 02:26:21;;;;;;;4.63;1.90;;;14.50;99.90;;;;;;4957336;28;20074;-74
2022/07/29 02:28:49;;;;;;;5.30;2.03;;;14.40;99.90;;;;;;4957880;28;20522;-74
2022/07/29 02:31:18;;;;;;;6.13;1.70;;;14.50;99.90;;;;;;4956958;29;20047;-73
2022/07/29 02:33:47;;;;;;;4.18;1.52;;;14.50;99.90;;;;;;4943942;29;20134;-74
2022/07/29 02:36:14;;;;;;;5.53;2.08;;;14.40;99.90;;;;;;4957159;29;20055;-74
2022/07/29 02:38:52;;;;;;;4.10;1.60;;;14.40;99.90;;;;;;4956740;29;20058;-74
2022/07/29 02:41:27;;;;;;;4.00;1.67;;;14.40;99.90;;;;;;4956961;29;20047;-74
2022/07/29 02:43:57;;;;;;;4.35;1.70;;;14.40;99.90;;;;;;4956849;29;20134;-73
2022/07/29 02:46:53;;;;;;;6.13;1.80;;;14.40;99.90;;;;;;4955904;28;20062;-75
2022/07/29 02:49:51;;;;;;;6.35;2.28;;;14.40;99.90;;;;;;4950893;29;20488;-74
2022/07/29 02:52:24;;;;;;;5.43;1.98;;;14.40;99.90;;;;;;4957527;28;20047;-73
2022/07/29 02:55:06;;;;;;;6.10;2.10;;;14.40;99.90;;;;;;4956284;29;20079;-76
2022/07/29 02:57:38;;;;;;;6.32;1.90;;;14.40;99.90;;;;;;4939859;29;20066;-74
2022/07/29 03:00:07;;;;;;;5.68;2.20;;;14.30;99.90;;;;;;4957412;28;20067;-73
2022/07/29 03:02:38;;;;;;;7.43;1.90;;;14.40;99.90;;;;;;4940230;29;20094;-73
2022/07/29 03:05:06;;;;;;;6.15;1.98;;;14.30;99.90;;;;;;4955909;29;20051;-75
2022/07/29 03:07:33;;;;;;;5.80;1.80;;;14.20;99.90;;;;;;4957795;29;20153;-74
2022/07/29 03:09:59;;;;;;;5.45;1.80;;;14.20;99.90;;;;;;4928541;29;20057;-75
2022/07/29 03:12:26;;;;;;;4.27;1.70;;;14.20;99.90;;;;;;4957507;29;20039;-75
2022/07/29 03:14:53;;;;;;;4.57;1.73;;;14.20;99.90;;;;;;4956013;29;20051;-75
2022/07/29 03:17:21;;;;;;;5.07;1.80;;;14.20;99.90;;;;;;4940717;29;20066;-74
2022/07/29 03:19:48;;;;;;;7.95;1.70;;;14.20;99.90;;;;;;4955522;29;20382;-74
2022/07/29 03:22:14;;;;;;;5.55;1.67;;;14.20;99.90;;;;;;4924213;29;20113;-74
2022/07/29 03:24:40;;;;;;;6.82;2.38;;;14.20;99.90;;;;;;4940014;29;20377;-74
2022/07/29 03:27:06;;;;;;;6.65;2.45;;;14.20;99.90;;;;;;4956950;29;20054;-73
2022/07/29 03:29:32;;;;;;;6.10;1.58;;;14.20;99.90;;;;;;4957078;29;20051;-75
2022/07/29 03:31:58;;;;;;;7.07;1.80;;;14.10;99.90;;;;;;4957303;29;20372;-73
2022/07/29 03:34:24;;;;;;;5.60;1.75;;;14.10;99.90;;;;;;4955527;29;20291;-72
2022/07/29 03:36:50;;;;;;;6.25;2.00;;;14.10;99.90;;;;;;4956171;29;20051;-74
2022/07/29 03:39:20;;;;;;;6.50;1.80;;;14.10;99.90;;;;;;4940339;29;20499;-73
2022/07/29 03:41:49;;;;;;;10.48;2.17;;;14.10;99.90;;;;;;4957120;28;20079;-74
2022/07/29 03:44:17;;;;;;;4.68;1.75;;;14.10;99.90;;;;;;4955989;29;20040;-73
2022/07/29 03:46:45;;;;;;;4.75;1.70;;;14.10;99.90;;;;;;4955740;29;20141;-76
2022/07/29 03:49:14;;;;;;;6.15;1.60;;;14.00;99.90;;;;;;4924355;29;20059;-74
2022/07/29 03:51:40;;;;;;;6.68;2.08;;;14.00;99.90;;;;;;4956569;29;20110;-75
2022/07/29 03:54:07;;;;;;;5.05;2.00;;;14.00;99.90;;;;;;4956823;29;20403;-73
2022/07/29 03:56:37;;;;;;;3.67;1.45;;;14.00;99.90;;;;;;4959745;29;20055;-74
2022/07/29 03:59:03;;;;;;;8.18;2.08;;;14.00;99.90;;;;;;4942447;29;20058;-73
2022/07/29 04:01:32;;;;;;;5.50;1.88;;;13.90;99.90;;;;;;4940233;29;20413;-74
2022/07/29 04:03:58;;;;;;;6.63;1.70;;;14.00;99.90;;;;;;4956542;28;20083;-73
2022/07/29 04:06:25;;;;;;;5.22;2.05;;;13.90;99.90;;;;;;4955021;29;20421;-73
2022/07/29 04:08:51;;;;;;;7.57;1.90;;;13.90;99.90;;;;;;4957209;28;20055;-73
2022/07/29 04:11:17;;;;;;;9.98;2.22;;;13.90;99.90;;;;;;4955002;29;20055;-72
2022/07/29 04:13:42;;;;;;;5.53;2.00;;;13.90;99.90;;;;;;4954650;29;20047;-73
2022/07/29 04:16:08;;;;;;;8.38;1.80;;;13.90;99.90;;;;;;4938742;29;20047;-74
2022/07/29 04:18:34;;;;;;;5.65;2.00;;;13.90;99.90;;;;;;4939059;29;20047;-73
2022/07/29 04:21:00;;;;;;;5.97;2.10;;;13.90;99.90;;;;;;4938433;29;20057;-74
2022/07/29 04:23:27;;;;;;;9.15;1.70;;;13.90;99.90;;;;;;4938501;29;20047;-74
2022/07/29 04:25:53;;;;;;;6.43;2.20;;;13.90;99.90;;;;;;4954235;29;20126;-75
2022/07/29 04:28:18;;;;;;;5.72;1.92;;;13.90;99.90;;;;;;4938720;29;20078;-75
2022/07/29 04:30:44;;;;;;;8.18;1.73;;;13.90;99.90;;;;;;4938574;29;20538;-75
2022/07/29 04:33:11;;;;;;;7.07;2.15;;;13.90;99.90;;;;;;4954124;29;20043;-72
2022/07/29 04:35:38;;;;;;;6.57;2.08;;;13.90;99.90;;;;;;4922829;29;20130;-74
2022/07/29 04:38:06;;;;;;;5.50;1.75;;;13.90;99.90;;;;;;4954411;29;20055;-74
2022/07/29 04:40:32;;;;;;;8.32;2.17;;;13.90;99.90;;;;;;4955016;28;20055;-74
2022/07/29 04:43:00;;;;;;;5.05;1.50;;;13.80;99.90;;;;;;4954009;29;20123;-74
2022/07/29 04:45:26;;;;;;;7.30;2.20;;;13.90;99.90;;;;;;4954913;28;20135;-74
2022/07/29 04:47:51;;;;;;;4.18;1.90;;;13.80;99.90;;;;;;4953859;29;20067;-78
2022/07/29 04:50:17;;;;;;;5.57;1.67;;;13.80;99.90;;;;;;4953331;29;20157;-74
2022/07/29 04:52:43;;;;;;;8.07;2.05;;;13.80;99.90;;;;;;4954776;29;20106;-74
2022/07/29 04:55:09;;;;;;;9.38;2.22;;;13.80;99.90;;;;;;4953665;29;20055;-74
2022/07/29 04:57:36;;;;;;;6.70;2.03;;;13.80;99.90;;;;;;4955083;29;20073;-73
2022/07/29 05:00:03;;;;;;;4.18;1.63;;;13.80;99.90;;;;;;4937526;29;20043;-75
2022/07/29 05:02:29;;;;;;;11.63;2.55;;;13.80;99.90;;;;;;4953590;29;20126;-74
2022/07/29 05:04:55;;;;;;;5.03;1.85;;;13.90;99.90;;;;;;4953207;29;20508;-77
2022/07/29 05:07:21;;;;;;;6.97;1.88;;;13.90;99.90;;;;;;4953741;29;20122;-75
2022/07/29 05:09:46;;;;;;;7.57;2.10;;;13.90;99.90;;;;;;4921841;29;20066;-75
2022/07/29 05:12:12;;;;;;;5.80;1.90;;;14.00;99.90;;;;;;4937259;29;20048;-74
2022/07/29 05:14:38;;;;;;;5.60;1.88;;;14.00;99.90;;;;;;4937542;29;20055;-74
2022/07/29 05:17:03;;;;;;;7.55;1.90;;;14.00;99.90;;;;;;4954384;28;20510;-74
2022/07/29 05:19:29;;;;;;;7.00;1.77;;;14.10;99.90;;;;;;4921780;29;20086;-74
2022/07/29 05:21:55;;;;;;;5.32;1.90;;;14.20;99.90;;;;;;4953089;29;20047;-76
2022/07/29 05:24:20;;;;;;;5.07;1.63;;;14.20;99.90;;;;;;4953788;29;20062;-73
2022/07/29 05:26:46;;;;;;;7.28;2.05;;;14.30;99.90;;;;;;4954669;28;20054;-74
2022/07/29 05:29:12;;;;;;;5.03;1.88;;;14.40;99.90;;;;;;4922911;29;20146;-76
2022/07/29 05:31:37;;;;;;;6.75;1.90;;;14.30;99.90;;;;;;4956182;29;20548;-76
2022/07/29 05:34:03;;;;;;;7.60;1.85;;;14.50;99.90;;;;;;4956233;29;20047;-75
2022/07/29 05:36:29;;;;;;;8.80;2.30;;;14.60;99.90;;;;;;4965338;28;20054;-75
2022/07/29 05:38:55;;;;;;;7.90;1.45;;;14.70;99.90;;;;;;4969537;29;20551;-76
2022/07/29 05:41:21;;;;;;;4.50;1.70;;;14.80;99.90;;;;;;4955160;29;20054;-76
2022/07/29 05:43:46;;;;;;;7.00;1.63;;;14.80;99.90;;;;;;4970745;29;20058;-75
2022/07/29 05:46:13;;;;;;;6.30;1.80;;;14.90;99.90;;;;;;4968138;29;20086;-76
2022/07/29 05:48:39;;;;;;;6.15;1.80;;;14.90;99.90;;;;;;4963992;29;20047;-75
2022/07/29 05:51:05;;;;;;;8.20;1.83;;;15.00;99.90;;;;;;4957436;29;20054;-75
2022/07/29 05:53:31;;;;;;;7.40;1.75;;;15.10;99.90;;;;;;4955988;29;20115;-74
2022/07/29 05:55:57;;;;;;;3.97;1.67;;;15.20;99.90;;;;;;4954494;29;20050;-75
2022/07/29 05:58:23;;;;;;;4.35;1.60;;;15.30;99.90;;;;;;4953995;29;20078;-74
2022/07/29 06:00:49;;;;;;;4.13;1.52;;;15.40;99.90;;;;;;4941034;29;20131;-75
2022/07/29 06:03:15;;;;;;;10.05;1.63;;;15.40;99.90;;;;;;4955833;29;20138;-75
2022/07/29 06:05:41;;;;;;;6.38;1.63;;;15.30;99.90;;;;;;4957321;29;20201;-74
2022/07/29 06:08:07;;;;;;;6.75;1.63;;;15.40;99.90;;;;;;4955296;29;20094;-74
2022/07/29 06:10:35;;;;;;;8.87;1.67;;;15.50;99.90;;;;;;4940124;29;20138;-76
2022/07/29 06:13:01;;;;;;;4.30;1.38;;;15.60;99.90;;;;;;4956031;29;20307;-76
2022/07/29 06:15:26;;;;;;;7.50;1.60;;;15.60;99.90;;;;;;4953301;29;20125;-77
2022/07/29 06:17:52;;;;;;;7.45;1.90;;;15.70;99.90;;;;;;4937715;29;20054;-76
2022/07/29 06:20:19;;;;;;;8.48;1.90;;;15.60;99.90;;;;;;4954107;29;20047;-76
2022/07/29 06:22:44;;;;;;;7.38;1.67;;;15.70;99.90;;;;;;4957795;28;20322;-77
2022/07/29 06:25:10;;;;;;;6.85;1.67;;;15.80;99.90;;;;;;4958793;29;20164;-76
2022/07/29 06:27:36;;;;;;;9.88;1.30;;;15.80;99.90;;;;;;4958367;28;20051;-76
2022/07/29 06:30:02;;;;;;;7.03;1.50;;;15.90;99.90;;;;;;4958317;28;20097;-77
2022/07/29 06:32:28;;;;;;;5.05;1.50;;;15.90;99.90;;;;;;4940826;29;20118;-75
2022/07/29 06:34:53;;;;;;;10.18;1.73;;;15.90;99.90;;;;;;4957044;29;20497;-77
2022/07/29 06:37:19;;;;;;;4.65;1.67;;;15.90;99.90;;;;;;4941029;29;20055;-74
2022/07/29 06:39:45;;;;;;;7.22;1.65;;;16.00;99.90;;;;;;4958286;29;20471;-75
2022/07/29 06:42:11;;;;;;;5.03;1.60;;;16.00;99.90;;;;;;4956770;29;20055;-77
2022/07/29 06:44:37;;;;;;;6.00;1.80;;;16.10;99.90;;;;;;4957468;29;20051;-77
2022/07/29 06:47:03;;;;;;;4.47;1.73;;;16.10;99.90;;;;;;4941513;29;20110;-75
2022/07/29 06:49:32;;;;;;;7.95;1.90;;;16.20;99.90;;;;;;4958497;28;20130;-76
2022/07/29 06:51:58;;;;;;;6.32;2.33;;;16.20;99.90;;;;;;4959435;29;20055;-74
2022/07/29 06:54:24;;;;;;;5.13;1.95;;;15.90;99.90;;;;;;4964213;29;20167;-75
2022/07/29 06:56:50;;;;;;;7.82;1.90;;;15.90;99.90;;;;;;4964883;29;20138;-74
2022/07/29 06:59:15;;;;;;;7.30;1.95;;;16.00;99.90;;;;;;4959708;28;20051;-76
2022/07/29 07:01:43;;;;;;;7.50;1.75;;;15.90;99.90;;;;;;4958087;29;20070;-76
2022/07/29 07:04:09;;;;;;;6.32;2.17;;;15.90;99.90;;;;;;4956420;29;20047;-75
2022/07/29 07:06:35;;;;;;;8.10;1.98;;;16.00;99.90;;;;;;4956649;29;20070;-75
2022/07/29 07:09:01;;;;;;;15.82;2.40;;;16.10;99.90;;;;;;4957297;29;20487;-76
2022/07/29 07:11:28;;;;;;;4.63;1.80;;;16.20;99.90;;;;;;4941032;29;20058;-75
2022/07/29 07:13:54;;;;;;;8.73;1.75;;;16.40;99.90;;;;;;4956394;29;20055;-76
2022/07/29 07:16:20;;;;;;;6.10;1.98;;;16.50;99.90;;;;;;4957567;29;20110;-76
2022/07/29 07:18:45;;;;;;;3.15;1.58;;;16.60;99.90;;;;;;4956105;29;20349;-76
2022/07/29 07:21:12;;;;;;;5.07;1.67;;;16.80;99.90;;;;;;4955681;29;20051;-75
2022/07/29 07:23:37;;;;;;;4.28;1.63;;;16.70;99.90;;;;;;4956977;29;20113;-75
2022/07/29 07:26:05;;;;;;;6.75;2.50;;;16.80;99.90;;;;;;4939837;29;20055;-75
2022/07/29 07:28:31;;;;;;;6.40;1.85;;;16.80;99.90;;;;;;4955479;29;20063;-76
2022/07/29 07:30:57;;;;;;;5.20;1.73;;;16.90;99.90;;;;;;4957341;28;20054;-76
2022/07/29 07:33:23;;;;;;;7.32;2.35;;;17.10;99.90;;;;;;4939732;29;20105;-75
2022/07/29 07:35:48;;;;;;;5.85;2.05;;;17.20;99.90;;;;;;4955758;29;20050;-74
2022/07/29 07:38:14;;;;;;;11.02;2.30;;;17.20;99.90;;;;;;4956515;28;20058;-73
2022/07/29 07:40:40;;;;;;;5.73;2.20;;;17.10;99.90;;;;;;4924372;29;20142;-76
2022/07/29 07:43:06;;;;;;;6.32;2.00;;;17.20;99.90;;;;;;4939015;29;20527;-76
2022/07/29 07:45:32;;;;;;;7.47;2.33;;;17.30;99.90;;;;;;4955665;29;20059;-76
2022/07/29 07:47:58;;;;;;;6.17;1.97;;;17.40;99.90;;;;;;4955143;29;20054;-77
2022/07/29 07:50:24;;;;;;;7.22;2.40;;;17.50;99.90;;;;;;4955124;29;20118;-77
2022/07/29 07:52:53;;;;;;;6.07;1.75;;;17.60;99.90;;;;;;4955052;28;20062;-76
2022/07/29 07:55:19;;;;;;;8.10;2.13;;;17.60;99.90;;;;;;4955813;29;20476;-76
2022/07/29 07:57:46;;;;;;;6.88;2.08;;;17.60;99.90;;;;;;4939505;29;20058;-77
2022/07/29 08:00:14;;;;;;;8.48;2.30;;;17.60;99.90;;;;;;4939622;29;20476;-77
2022/07/29 08:02:46;;;;;;;8.32;2.00;;;17.20;99.90;;;;;;4925212;29;20057;-75
2022/07/29 08:05:16;;;;;;;10.02;2.15;;;17.10;99.90;;;;;;4956344;29;20125;-76
2022/07/29 08:07:43;;;;;;;10.32;2.10;;;17.00;99.90;;;;;;4955199;29;20047;-74
2022/07/29 08:10:09;;;;;;;7.88;2.10;;;17.00;99.90;;;;;;4939020;29;20478;-75
2022/07/29 08:12:35;;;;;;;9.25;2.15;;;16.80;99.90;;;;;;4954567;29;20039;-77
2022/07/29 08:15:01;;;;;;;7.90;2.43;;;16.70;99.90;;;;;;4940102;29;20452;-74
2022/07/29 08:17:26;;;;;;;9.88;2.28;;;16.70;99.90;;;;;;4923282;29;20118;-74
2022/07/29 08:19:52;;;;;;;7.68;2.30;;;16.40;99.90;;;;;;4940417;29;20047;-75
2022/07/29 08:22:19;;;;;;;8.65;2.20;;;16.20;99.90;;;;;;4955426;29;20055;-75
2022/07/29 08:24:52;;;;;;;8.23;2.20;;;16.20;99.90;;;;;;4956753;29;20550;-75
2022/07/29 08:27:19;;;;;;;6.80;2.50;;;16.10;99.90;;;;;;4956764;29;20126;-78
2022/07/29 08:29:45;;;;;;;6.82;2.10;;;16.30;99.90;;;;;;4956663;29;20113;-77
2022/07/29 08:32:11;;;;;;;7.72;2.80;;;16.30;99.90;;;;;;4958134;29;20443;-77
2022/07/29 08:34:36;;;;;;;9.43;2.13;;;16.40;99.90;;;;;;4956727;28;20044;-76
2022/07/29 08:37:02;;;;;;;8.00;2.30;;;16.50;99.90;;;;;;4955273;29;20344;-76
2022/07/29 08:39:28;;;;;;;7.50;2.58;;;16.40;99.90;;;;;;4954990;29;20496;-74
2022/07/29 08:41:54;;;;;;;7.40;2.50;;;16.40;99.90;;;;;;4955914;29;20058;-76
2022/07/29 08:44:24;;;;;;;5.93;2.25;;;16.30;99.90;;;;;;4960078;28;20043;-76
2022/07/29 08:46:51;;;;;;;6.57;2.40;;;16.10;99.90;;;;;;4964683;28;20070;-77
2022/07/29 08:49:18;;;;;;;6.82;2.53;;;15.90;99.90;;;;;;4959968;29;20067;-76
2022/07/29 08:51:44;;;;;;;7.70;2.47;;;15.90;99.90;;;;;;4943227;29;20050;-77
2022/07/29 08:54:11;;;;;;;8.55;2.58;;;15.80;99.90;;;;;;4958934;29;20055;-77
2022/07/29 08:56:39;;;;;;;8.80;2.65;;;15.80;99.90;;;;;;4959562;29;20101;-77
2022/07/29 08:59:05;;;;;;;6.38;2.40;;;15.90;99.90;;;;;;4959244;29;20130;-78
2022/07/29 09:01:34;;;;;;;9.73;2.92;;;16.00;99.90;;;;;;4957320;29;20417;-76
2022/07/29 09:04:02;;;;;;;5.53;2.55;;;16.00;99.90;;;;;;4962016;29;20120;-77
2022/07/29 09:06:34;;;;;;;10.75;2.38;;;16.00;99.90;;;;;;4960332;28;20174;-76
2022/07/29 09:09:00;;;;;;;11.02;2.80;;;16.10;99.90;;;;;;4958281;29;20062;-77
2022/07/29 09:11:27;;;;;;;7.70;2.97;;;16.10;99.90;;;;;;4962526;29;20051;-78
2022/07/29 09:14:03;;;;;;;10.63;3.00;;;16.20;99.90;;;;;;4947402;29;20471;-80
2022/07/29 09:17:05;;;;;;;7.75;3.00;;;16.30;99.90;;;;;;4958357;29;20114;-78
2022/07/29 09:19:34;;;;;;;8.70;3.13;;;16.50;99.90;;;;;;4887251;29;20052;-77
2022/07/29 09:22:02;;;;;;;11.68;3.10;;;16.60;99.90;;;;;;4947026;29;20055;-78
2022/07/29 09:24:34;;;;;;;8.82;3.08;;;16.80;99.90;;;;;;4956156;29;20051;-75
2022/07/29 09:27:00;;;;;;;11.18;2.63;;;17.10;99.90;;;;;;4957899;29;20054;-77
2022/07/29 09:29:27;;;;;;;10.73;2.90;;;17.30;99.90;;;;;;4958206;29;20051;-79
2022/07/29 09:31:54;;;;;;;9.70;2.70;;;17.40;99.90;;;;;;4957746;29;20071;-79
2022/07/29 09:34:26;;;;;;;8.48;2.50;;;17.70;99.90;;;;;;4967719;29;20043;-79
2022/07/29 09:36:53;;;;;;;9.15;2.60;;;18.00;99.90;;;;;;4965633;29;20043;-79
2022/07/29 09:39:31;;;;;;;12.15;2.83;;;18.10;99.90;;;;;;4963579;29;20090;-76
2022/07/29 09:41:59;;;;;;;6.65;2.92;;;18.30;99.90;;;;;;4961371;29;20051;-78
2022/07/29 09:44:25;;;;;;;9.55;2.60;;;18.40;99.90;;;;;;4963358;29;20047;-77
2022/07/29 09:47:05;;;;;;;7.28;2.80;;;18.60;99.90;;;;;;4944328;29;20043;-77
2022/07/29 09:49:34;;;;;;;9.27;2.85;;;18.50;99.90;;;;;;4961955;29;20060;-75
2022/07/29 09:52:04;;;;;;;10.02;2.78;;;18.20;99.90;;;;;;4962930;29;20051;-75
2022/07/29 09:54:36;;;;;;;8.18;2.50;;;18.20;99.90;;;;;;4967425;29;20123;-78
2022/07/29 09:57:06;;;;;;;8.88;2.63;;;18.40;99.90;;;;;;4972915;28;20047;-76
2022/07/29 09:59:33;;;;;;;11.93;2.83;;;18.60;99.90;;;;;;4973335;29;20047;-77
2022/07/29 10:01:59;;;;;;;7.20;2.90;;;18.60;99.90;;;;;;4970311;29;20043;-75
2022/07/29 10:04:42;;;;;;;13.95;3.17;;;18.60;99.90;;;;;;4968958;29;20087;-79
2022/07/29 10:07:08;;;;;;;7.28;2.60;;;18.60;99.90;;;;;;4968646;29;20090;-76
2022/07/29 10:09:35;;;;;;;8.10;2.60;;;18.80;99.90;;;;;;4968857;29;20201;-77
2022/07/29 10:12:08;;;;;;;;;;;18.60;99.90;;;;;;4952815;29;20050;-76
2022/07/29 10:14:35;;;;;;;6.40;2.53;;;18.90;99.90;;;;;;4954283;29;19923;-76
2022/07/29 10:17:03;;;;;;;8.57;2.22;;;19.00;99.90;;;;;;4954981;29;20065;-77
2022/07/29 10:19:32;;;;;;;8.13;2.40;;;19.20;99.90;;;;;;4971437;29;20108;-77
2022/07/29 10:21:59;;;;;;;8.85;2.72;;;19.30;99.90;;;;;;4949984;29;20090;-75
2022/07/29 10:24:29;;;;;;;;;;;19.20;99.90;;;;;;4959834;29;20047;-77
2022/07/29 10:27:00;;;;;;;6.50;1.92;;;19.40;99.90;;;;;;4966883;29;19922;-76
2022/07/29 10:29:26;;;;;;;10.55;2.25;;;19.70;99.90;;;;;;4968576;29;20400;-79
2022/07/29 10:31:59;;;;;;;6.90;2.40;;;19.70;99.90;;;;;;4969817;29;20107;-77
2022/07/29 10:34:44;;;;;;;8.48;2.08;;;19.60;99.90;;;;;;4952025;29;20127;-77
2022/07/29 10:37:33;;;;;;;10.27;2.00;;;19.90;99.90;;;;;;4966611;29;20071;-77
2022/07/29 10:41:26;;;;;;;10.52;2.15;;;19.80;99.90;;;;;;4964864;28;20049;-77
2022/07/29 10:42:54;;;;;;;9.32;2.40;;;20.00;99.90;;;;;;4965214;28;20069;-77
2022/07/29 10:45:20;;;;;;;6.32;2.58;;;20.10;99.90;;;;;;4949728;29;20054;-77
2022/07/29 10:47:46;;;;;;;10.32;2.88;;;20.00;99.90;;;;;;4964000;28;20051;-77
2022/07/29 10:50:12;;;;;;;9.00;2.30;;;19.90;99.90;;;;;;4963782;29;20183;-77
2022/07/29 10:52:52;;;;;;;8.03;1.90;;;20.30;99.90;;;;;;4947885;29;20153;-76
2022/07/29 10:55:39;;;;;;;10.38;2.13;;;20.50;99.90;;;;;;4965437;28;20162;-78
2022/07/29 10:58:13;;;;;;;7.93;2.08;;;20.90;99.90;;;;;;4965872;29;20095;-76
2022/07/29 11:00:40;;;;;;;8.50;2.10;;;20.70;99.90;;;;;;4965474;29;20100;-77
2022/07/29 11:03:06;;;;;;;9.60;2.35;;;20.70;99.90;;;;;;4965506;29;20081;-75
2022/07/29 11:05:52;;;;;;;8.63;2.37;;;21.00;99.90;;;;;;4948377;29;20526;-78
2022/07/29 11:08:22;;;;;;;5.22;1.92;;;20.80;99.90;;;;;;4960653;28;20051;-78
2022/07/29 11:10:53;;;;;;;7.40;2.33;;;21.00;99.90;;;;;;4942566;29;20055;-78
2022/07/29 11:13:43;;;;;;;9.40;2.50;;;21.20;99.90;;;;;;4941376;29;20047;-77
2022/07/29 11:16:09;;;;;;;8.52;2.70;;;20.80;99.90;;;;;;4940664;29;20055;-76
2022/07/29 11:19:11;;;;;;;8.40;2.30;;;20.80;99.90;;;;;;4958039;29;20130;-77
2022/07/29 11:21:41;;;;;;;9.07;2.42;;;21.10;99.90;;;;;;4941036;29;20051;-75
2022/07/29 11:24:18;;;;;;;7.80;2.10;;;21.40;99.90;;;;;;4958093;29;20133;-78
2022/07/29 11:26:45;;;;;;;6.47;2.35;;;21.40;99.90;;;;;;4958011;29;20107;-81
2022/07/29 11:29:13;;;;;;;8.95;2.35;;;21.60;99.90;;;;;;4959679;29;20059;-78
2022/07/29 11:31:45;;;;;;;9.80;2.08;;;21.50;99.90;;;;;;4959430;28;20451;-76
2022/07/29 11:34:19;;;;;;;9.07;2.10;;;21.80;99.90;;;;;;4958709;28;20053;-78
2022/07/29 11:37:11;;;;;;;10.07;2.03;;;22.00;99.90;;;;;;4956403;29;20110;-78
2022/07/29 11:39:46;;;;;;;5.95;2.17;;;22.20;99.90;;;;;;4955561;29;20059;-77
2022/07/29 11:42:21;;;;;;;8.23;2.20;;;21.90;99.80;;;;;;4957561;28;20051;-76
2022/07/29 11:44:58;;;;;;;8.82;2.05;;;21.80;99.00;;;;;;4957407;29;20058;-75
2022/07/29 11:47:38;;;;;;;11.57;2.53;;;21.90;99.10;;;;;;4957048;29;20047;-75
2022/07/29 11:50:11;;;;;;;7.63;2.47;;;21.70;99.10;;;;;;4956004;29;20055;-76
2022/07/29 11:52:46;;;;;;;7.55;2.40;;;21.20;98.50;;;;;;4941327;29;20051;-76
2022/07/29 11:55:17;;;;;;;7.25;2.33;;;20.90;99.30;;;;;;4940905;29;20082;-76
2022/07/29 11:57:52;;;;;;;11.15;2.30;;;21.10;99.90;;;;;;4957936;29;20055;-77
2022/07/29 12:00:34;;;;;;;8.35;2.60;;;21.40;99.90;;;;;;4956758;28;20503;-79
2022/07/29 12:03:02;;;;;;;10.70;2.47;;;21.70;99.70;;;;;;4958005;28;20540;-81
2022/07/29 12:05:41;;;;;;;7.38;2.15;;;22.10;99.40;;;;;;4941867;29;20074;-78
2022/07/29 12:08:21;;;;;;;9.88;2.15;;;22.40;98.90;;;;;;4957960;29;20047;-77
2022/07/29 12:10:49;;;;;;;7.70;2.40;;;22.80;98.40;;;;;;4959177;29;20398;-78
2022/07/29 12:13:17;;;;;;;7.32;2.50;;;23.00;98.50;;;;;;4957680;29;20057;-77
2022/07/29 12:15:51;;;;;;;10.32;2.75;;;22.90;96.60;;;;;;4956225;28;20488;-77
2022/07/29 12:18:19;;;;;;;7.72;2.10;;;22.80;97.60;;;;;;4955939;29;20122;-76
2022/07/29 12:20:46;;;;;;;9.18;2.15;;;22.90;97.90;;;;;;4954669;28;20050;-76
2022/07/29 12:23:13;;;;;;;7.03;2.63;;;22.20;97.10;;;;;;4956560;28;20047;-74
2022/07/29 12:25:41;;;;;;;6.47;2.25;;;22.00;96.90;;;;;;4957019;29;20063;-78
2022/07/29 12:28:09;;;;;;;8.40;2.58;;;22.20;97.80;;;;;;4955283;29;20460;-78
2022/07/29 12:30:44;;;;;;;6.15;2.38;;;22.60;97.80;;;;;;4956042;29;20503;-77
2022/07/29 12:33:14;;;;;;;10.05;2.25;;;22.90;96.90;;;;;;4956135;28;20054;-76
2022/07/29 12:35:41;;;;;;;6.72;1.92;;;22.70;96.60;;;;;;4939039;29;20472;-78
2022/07/29 12:38:10;;;;;;;8.98;1.80;;;23.10;96.50;;;;;;4955545;29;20379;-76
2022/07/29 12:40:36;;;;;;;4.25;1.50;;;23.20;96.20;;;;;;4955390;29;20051;-77
2022/07/29 12:43:19;;;;;;;6.38;1.95;;;23.20;96.10;;;;;;4956051;28;20110;-78
2022/07/29 12:45:51;;;;;;;7.60;1.52;;;23.30;95.50;;;;;;4955436;29;20483;-78
2022/07/29 12:48:39;;;;;;;8.20;1.88;;;23.40;94.60;;;;;;4959553;28;20190;-79
2022/07/29 12:51:07;;;;;;;7.93;1.90;;;23.50;94.70;;;;;;4963241;28;20083;-76
2022/07/29 12:53:36;;;;;;;9.50;1.60;;;23.70;94.30;;;;;;4950830;29;20118;-77
2022/07/29 12:56:03;;;;;;;5.45;1.70;;;23.80;93.80;;;;;;4944450;29;20049;-77
2022/07/29 12:58:37;;;;;;;11.27;1.90;;;23.70;93.40;;;;;;4945202;29;20055;-78
2022/07/29 13:01:15;;;;;;;7.72;2.00;;;24.00;93.50;;;;;;4960530;29;20429;-78